sensor_id;sensor_type;location;lat;lon;timestamp;P1;durP1;ratioP1;P2;durP2;ratioP2
62580;SDS011;48640;48.770;9.148;2022-12-18T00:00:44;57.67;;;28.03;;
62580;SDS011;48640;48.770;9.148;2022-12-18T00:03:12;59.37;;;29.17;;
62580;SDS011;48640;48.770;9.148;2022-12-18T00:05:45;53.37;;;25.67;;
62580;SDS011;48640;48.770;9.148;2022-12-18T00:08:13;53.10;;;25.37;;
62580;SDS011;48640;48.770;9.148;2022-12-18T00:10:41;56.57;;;27.30;;
62580;SDS011;48640;48.770;9.148;2022-12-18T00:13:08;58.10;;;28.27;;
62580;SDS011;48640;48.770;9.148;2022-12-18T00:15:35;59.27;;;27.97;;
62580;SDS011;48640;48.770;9.148;2022-12-18T00:18:03;56.30;;;27.03;;
62580;SDS011;48640;48.770;9.148;2022-12-18T00:20:30;59.93;;;27.37;;
62580;SDS011;48640;48.770;9.148;2022-12-18T00:22:57;54.57;;;25.17;;
62580;SDS011;48640;48.770;9.148;2022-12-18T00:25:23;52.87;;;24.07;;
62580;SDS011;48640;48.770;9.148;2022-12-18T00:27:51;57.60;;;28.63;;
62580;SDS011;48640;48.770;9.148;2022-12-18T00:30:18;57.33;;;28.20;;
62580;SDS011;48640;48.770;9.148;2022-12-18T00:32:45;54.13;;;26.87;;
62580;SDS011;48640;48.770;9.148;2022-12-18T00:35:12;54.07;;;25.23;;
62580;SDS011;48640;48.770;9.148;2022-12-18T00:37:39;57.97;;;25.70;;
62580;SDS011;48640;48.770;9.148;2022-12-18T00:40:06;49.80;;;26.17;;
62580;SDS011;48640;48.770;9.148;2022-12-18T00:42:33;53.47;;;25.30;;
62580;SDS011;48640;48.770;9.148;2022-12-18T00:45:19;54.47;;;27.07;;
62580;SDS011;48640;48.770;9.148;2022-12-18T00:47:46;54.00;;;28.17;;
62580;SDS011;48640;48.770;9.148;2022-12-18T00:50:12;55.20;;;25.67;;
62580;SDS011;48640;48.770;9.148;2022-12-18T00:52:39;53.50;;;25.47;;
62580;SDS011;48640;48.770;9.148;2022-12-18T00:55:06;56.97;;;27.00;;
62580;SDS011;48640;48.770;9.148;2022-12-18T00:57:33;54.53;;;26.53;;
62580;SDS011;48640;48.770;9.148;2022-12-18T01:00:00;52.27;;;22.90;;
62580;SDS011;48640;48.770;9.148;2022-12-18T01:02:28;52.70;;;25.43;;
62580;SDS011;48640;48.770;9.148;2022-12-18T01:04:55;61.23;;;27.37;;
62580;SDS011;48640;48.770;9.148;2022-12-18T01:07:21;52.47;;;23.50;;
62580;SDS011;48640;48.770;9.148;2022-12-18T01:09:48;53.07;;;25.37;;
62580;SDS011;48640;48.770;9.148;2022-12-18T01:12:15;56.33;;;25.93;;
62580;SDS011;48640;48.770;9.148;2022-12-18T01:14:42;54.57;;;26.17;;
62580;SDS011;48640;48.770;9.148;2022-12-18T01:17:08;51.27;;;24.67;;
62580;SDS011;48640;48.770;9.148;2022-12-18T01:19:36;56.07;;;25.53;;
62580;SDS011;48640;48.770;9.148;2022-12-18T01:22:03;51.10;;;24.73;;
62580;SDS011;48640;48.770;9.148;2022-12-18T01:24:30;56.93;;;26.33;;
62580;SDS011;48640;48.770;9.148;2022-12-18T01:26:57;48.23;;;24.60;;
62580;SDS011;48640;48.770;9.148;2022-12-18T01:29:23;50.77;;;22.47;;
62580;SDS011;48640;48.770;9.148;2022-12-18T01:31:50;45.27;;;22.70;;
62580;SDS011;48640;48.770;9.148;2022-12-18T01:34:17;49.33;;;23.83;;
62580;SDS011;48640;48.770;9.148;2022-12-18T01:36:45;47.83;;;23.47;;
62580;SDS011;48640;48.770;9.148;2022-12-18T01:39:13;47.00;;;23.20;;
62580;SDS011;48640;48.770;9.148;2022-12-18T01:41:41;52.93;;;24.30;;
62580;SDS011;48640;48.770;9.148;2022-12-18T01:47:20;44.17;;;23.13;;
62580;SDS011;48640;48.770;9.148;2022-12-18T01:49:50;53.43;;;26.53;;
62580;SDS011;48640;48.770;9.148;2022-12-18T01:52:18;51.13;;;23.47;;
62580;SDS011;48640;48.770;9.148;2022-12-18T01:54:47;48.53;;;24.77;;
62580;SDS011;48640;48.770;9.148;2022-12-18T01:57:16;50.03;;;25.40;;
62580;SDS011;48640;48.770;9.148;2022-12-18T01:59:43;49.13;;;23.73;;
62580;SDS011;48640;48.770;9.148;2022-12-18T02:02:14;48.60;;;23.60;;
62580;SDS011;48640;48.770;9.148;2022-12-18T02:04:41;47.03;;;23.80;;
62580;SDS011;48640;48.770;9.148;2022-12-18T02:07:10;50.17;;;23.60;;
62580;SDS011;48640;48.770;9.148;2022-12-18T02:09:44;48.10;;;22.07;;
62580;SDS011;48640;48.770;9.148;2022-12-18T02:12:16;49.23;;;23.17;;
62580;SDS011;48640;48.770;9.148;2022-12-18T02:14:47;44.50;;;23.63;;
62580;SDS011;48640;48.770;9.148;2022-12-18T02:17:22;47.33;;;22.90;;
62580;SDS011;48640;48.770;9.148;2022-12-18T02:19:59;44.97;;;23.43;;
62580;SDS011;48640;48.770;9.148;2022-12-18T02:22:34;44.23;;;23.10;;
62580;SDS011;48640;48.770;9.148;2022-12-18T02:25:13;42.40;;;20.57;;
62580;SDS011;48640;48.770;9.148;2022-12-18T02:27:51;44.20;;;20.47;;
62580;SDS011;48640;48.770;9.148;2022-12-18T02:30:20;43.30;;;23.30;;
62580;SDS011;48640;48.770;9.148;2022-12-18T02:32:48;43.60;;;20.40;;
62580;SDS011;48640;48.770;9.148;2022-12-18T02:35:19;42.47;;;20.33;;
62580;SDS011;48640;48.770;9.148;2022-12-18T02:37:49;47.30;;;22.67;;
62580;SDS011;48640;48.770;9.148;2022-12-18T02:40:17;49.40;;;22.83;;
62580;SDS011;48640;48.770;9.148;2022-12-18T02:42:46;40.80;;;18.93;;
62580;SDS011;48640;48.770;9.148;2022-12-18T02:45:14;37.83;;;19.63;;
62580;SDS011;48640;48.770;9.148;2022-12-18T02:47:42;40.60;;;20.63;;
62580;SDS011;48640;48.770;9.148;2022-12-18T02:50:13;47.15;;;21.20;;
62580;SDS011;48640;48.770;9.148;2022-12-18T02:52:50;41.70;;;19.90;;
62580;SDS011;48640;48.770;9.148;2022-12-18T02:55:24;43.80;;;22.03;;
62580;SDS011;48640;48.770;9.148;2022-12-18T02:57:58;40.80;;;21.90;;
62580;SDS011;48640;48.770;9.148;2022-12-18T03:00:33;44.77;;;20.53;;
62580;SDS011;48640;48.770;9.148;2022-12-18T03:03:05;43.47;;;20.40;;
62580;SDS011;48640;48.770;9.148;2022-12-18T03:08:05;46.47;;;20.30;;
62580;SDS011;48640;48.770;9.148;2022-12-18T03:10:38;49.70;;;21.77;;
62580;SDS011;48640;48.770;9.148;2022-12-18T03:13:09;45.20;;;20.90;;
62580;SDS011;48640;48.770;9.148;2022-12-18T03:15:41;44.17;;;19.77;;
62580;SDS011;48640;48.770;9.148;2022-12-18T03:18:12;42.60;;;19.70;;
62580;SDS011;48640;48.770;9.148;2022-12-18T03:20:43;37.17;;;19.10;;
62580;SDS011;48640;48.770;9.148;2022-12-18T03:23:12;39.27;;;19.27;;
62580;SDS011;48640;48.770;9.148;2022-12-18T03:25:43;40.50;;;19.57;;
62580;SDS011;48640;48.770;9.148;2022-12-18T03:28:12;39.47;;;18.67;;
62580;SDS011;48640;48.770;9.148;2022-12-18T03:30:43;38.00;;;18.53;;
62580;SDS011;48640;48.770;9.148;2022-12-18T03:33:12;39.27;;;18.47;;
62580;SDS011;48640;48.770;9.148;2022-12-18T03:35:44;38.27;;;20.07;;
62580;SDS011;48640;48.770;9.148;2022-12-18T03:38:11;44.50;;;19.87;;
62580;SDS011;48640;48.770;9.148;2022-12-18T03:40:43;38.97;;;20.93;;
62580;SDS011;48640;48.770;9.148;2022-12-18T03:43:16;41.77;;;18.70;;
62580;SDS011;48640;48.770;9.148;2022-12-18T03:45:53;42.53;;;20.10;;
62580;SDS011;48640;48.770;9.148;2022-12-18T03:48:27;39.63;;;18.63;;
62580;SDS011;48640;48.770;9.148;2022-12-18T03:51:01;36.70;;;17.47;;
62580;SDS011;48640;48.770;9.148;2022-12-18T03:53:34;37.90;;;20.37;;
62580;SDS011;48640;48.770;9.148;2022-12-18T03:56:06;34.40;;;19.43;;
62580;SDS011;48640;48.770;9.148;2022-12-18T03:58:34;40.03;;;19.23;;
62580;SDS011;48640;48.770;9.148;2022-12-18T04:01:05;42.95;;;19.90;;
62580;SDS011;48640;48.770;9.148;2022-12-18T04:03:34;42.57;;;19.47;;
62580;SDS011;48640;48.770;9.148;2022-12-18T04:06:02;39.43;;;20.30;;
62580;SDS011;48640;48.770;9.148;2022-12-18T04:08:31;45.27;;;19.17;;
62580;SDS011;48640;48.770;9.148;2022-12-18T04:10:59;43.90;;;21.23;;
62580;SDS011;48640;48.770;9.148;2022-12-18T04:13:27;37.63;;;19.93;;
62580;SDS011;48640;48.770;9.148;2022-12-18T04:15:56;41.47;;;19.87;;
62580;SDS011;48640;48.770;9.148;2022-12-18T04:18:24;41.93;;;18.27;;
62580;SDS011;48640;48.770;9.148;2022-12-18T04:20:50;42.23;;;21.10;;
62580;SDS011;48640;48.770;9.148;2022-12-18T04:23:17;33.07;;;17.70;;
62580;SDS011;48640;48.770;9.148;2022-12-18T04:25:44;36.70;;;16.73;;
62580;SDS011;48640;48.770;9.148;2022-12-18T04:28:12;33.33;;;16.97;;
62580;SDS011;48640;48.770;9.148;2022-12-18T04:30:39;40.40;;;18.77;;
62580;SDS011;48640;48.770;9.148;2022-12-18T04:33:08;35.10;;;17.57;;
62580;SDS011;48640;48.770;9.148;2022-12-18T04:35:37;24.13;;;13.43;;
62580;SDS011;48640;48.770;9.148;2022-12-18T04:38:05;35.33;;;18.57;;
62580;SDS011;48640;48.770;9.148;2022-12-18T04:40:32;36.83;;;18.67;;
62580;SDS011;48640;48.770;9.148;2022-12-18T04:42:58;44.30;;;19.40;;
62580;SDS011;48640;48.770;9.148;2022-12-18T04:45:25;40.47;;;17.40;;
62580;SDS011;48640;48.770;9.148;2022-12-18T04:47:52;37.33;;;18.77;;
62580;SDS011;48640;48.770;9.148;2022-12-18T04:50:19;41.50;;;18.33;;
62580;SDS011;48640;48.770;9.148;2022-12-18T04:52:47;36.30;;;18.83;;
62580;SDS011;48640;48.770;9.148;2022-12-18T04:55:13;42.87;;;20.03;;
62580;SDS011;48640;48.770;9.148;2022-12-18T04:57:40;39.70;;;19.30;;
62580;SDS011;48640;48.770;9.148;2022-12-18T05:00:08;36.30;;;18.40;;
62580;SDS011;48640;48.770;9.148;2022-12-18T05:02:35;41.87;;;19.73;;
62580;SDS011;48640;48.770;9.148;2022-12-18T05:05:02;38.30;;;18.87;;
62580;SDS011;48640;48.770;9.148;2022-12-18T05:07:29;34.93;;;19.17;;
62580;SDS011;48640;48.770;9.148;2022-12-18T05:09:57;43.83;;;18.67;;
62580;SDS011;48640;48.770;9.148;2022-12-18T05:12:24;39.77;;;17.87;;
62580;SDS011;48640;48.770;9.148;2022-12-18T05:14:51;39.20;;;19.63;;
62580;SDS011;48640;48.770;9.148;2022-12-18T05:17:17;39.23;;;18.40;;
62580;SDS011;48640;48.770;9.148;2022-12-18T05:19:44;40.50;;;18.63;;
62580;SDS011;48640;48.770;9.148;2022-12-18T05:22:11;45.50;;;20.50;;
62580;SDS011;48640;48.770;9.148;2022-12-18T05:24:38;34.17;;;16.47;;
62580;SDS011;48640;48.770;9.148;2022-12-18T05:27:06;44.63;;;20.00;;
62580;SDS011;48640;48.770;9.148;2022-12-18T05:29:32;40.93;;;19.97;;
62580;SDS011;48640;48.770;9.148;2022-12-18T05:31:59;38.93;;;17.70;;
62580;SDS011;48640;48.770;9.148;2022-12-18T05:34:26;36.90;;;17.20;;
62580;SDS011;48640;48.770;9.148;2022-12-18T05:36:53;35.47;;;17.57;;
62580;SDS011;48640;48.770;9.148;2022-12-18T05:39:19;38.17;;;17.73;;
62580;SDS011;48640;48.770;9.148;2022-12-18T05:41:46;35.70;;;18.23;;
62580;SDS011;48640;48.770;9.148;2022-12-18T05:44:14;35.07;;;17.30;;
62580;SDS011;48640;48.770;9.148;2022-12-18T05:46:41;38.00;;;17.30;;
62580;SDS011;48640;48.770;9.148;2022-12-18T05:49:08;37.13;;;17.63;;
62580;SDS011;48640;48.770;9.148;2022-12-18T05:51:35;39.33;;;18.40;;
62580;SDS011;48640;48.770;9.148;2022-12-18T05:54:01;33.90;;;17.17;;
62580;SDS011;48640;48.770;9.148;2022-12-18T05:56:28;45.07;;;19.40;;
62580;SDS011;48640;48.770;9.148;2022-12-18T05:58:55;40.00;;;17.50;;
62580;SDS011;48640;48.770;9.148;2022-12-18T06:01:24;42.13;;;18.67;;
62580;SDS011;48640;48.770;9.148;2022-12-18T06:03:52;38.07;;;18.53;;
62580;SDS011;48640;48.770;9.148;2022-12-18T06:06:21;37.43;;;18.87;;
62580;SDS011;48640;48.770;9.148;2022-12-18T06:08:49;39.73;;;18.40;;
62580;SDS011;48640;48.770;9.148;2022-12-18T06:11:17;37.93;;;18.43;;
62580;SDS011;48640;48.770;9.148;2022-12-18T06:13:45;36.47;;;17.93;;
62580;SDS011;48640;48.770;9.148;2022-12-18T06:16:12;36.17;;;17.47;;
62580;SDS011;48640;48.770;9.148;2022-12-18T06:18:40;44.90;;;18.83;;
62580;SDS011;48640;48.770;9.148;2022-12-18T06:21:07;36.70;;;16.83;;
62580;SDS011;48640;48.770;9.148;2022-12-18T06:23:34;35.00;;;18.37;;
62580;SDS011;48640;48.770;9.148;2022-12-18T06:26:03;38.97;;;18.73;;
62580;SDS011;48640;48.770;9.148;2022-12-18T06:28:31;35.40;;;17.17;;
62580;SDS011;48640;48.770;9.148;2022-12-18T06:30:58;29.67;;;17.63;;
62580;SDS011;48640;48.770;9.148;2022-12-18T06:33:25;37.97;;;18.63;;
62580;SDS011;48640;48.770;9.148;2022-12-18T06:35:58;34.70;;;17.00;;
62580;SDS011;48640;48.770;9.148;2022-12-18T06:38:26;36.23;;;17.30;;
62580;SDS011;48640;48.770;9.148;2022-12-18T06:40:53;37.37;;;17.97;;
62580;SDS011;48640;48.770;9.148;2022-12-18T06:43:19;33.20;;;16.20;;
62580;SDS011;48640;48.770;9.148;2022-12-18T06:45:46;36.23;;;17.60;;
62580;SDS011;48640;48.770;9.148;2022-12-18T06:48:17;30.50;;;16.77;;
62580;SDS011;48640;48.770;9.148;2022-12-18T06:50:44;37.70;;;18.00;;
62580;SDS011;48640;48.770;9.148;2022-12-18T06:53:12;35.03;;;16.77;;
62580;SDS011;48640;48.770;9.148;2022-12-18T06:55:39;38.83;;;18.57;;
62580;SDS011;48640;48.770;9.148;2022-12-18T06:58:05;42.90;;;18.13;;
62580;SDS011;48640;48.770;9.148;2022-12-18T07:00:32;43.17;;;18.13;;
62580;SDS011;48640;48.770;9.148;2022-12-18T07:02:59;37.70;;;17.57;;
62580;SDS011;48640;48.770;9.148;2022-12-18T07:05:26;37.80;;;17.80;;
62580;SDS011;48640;48.770;9.148;2022-12-18T07:07:53;38.33;;;17.33;;
62580;SDS011;48640;48.770;9.148;2022-12-18T07:10:21;39.10;;;17.53;;
62580;SDS011;48640;48.770;9.148;2022-12-18T07:12:47;33.73;;;16.03;;
62580;SDS011;48640;48.770;9.148;2022-12-18T07:15:14;36.17;;;17.43;;
62580;SDS011;48640;48.770;9.148;2022-12-18T07:17:41;36.73;;;16.63;;
62580;SDS011;48640;48.770;9.148;2022-12-18T07:20:08;37.63;;;17.40;;
62580;SDS011;48640;48.770;9.148;2022-12-18T07:22:36;36.27;;;18.50;;
62580;SDS011;48640;48.770;9.148;2022-12-18T07:25:03;36.90;;;18.10;;
62580;SDS011;48640;48.770;9.148;2022-12-18T07:27:31;40.23;;;17.67;;
62580;SDS011;48640;48.770;9.148;2022-12-18T07:29:58;38.73;;;17.27;;
62580;SDS011;48640;48.770;9.148;2022-12-18T07:32:25;39.00;;;18.77;;
62580;SDS011;48640;48.770;9.148;2022-12-18T07:34:52;41.23;;;19.57;;
62580;SDS011;48640;48.770;9.148;2022-12-18T07:37:18;41.80;;;20.10;;
62580;SDS011;48640;48.770;9.148;2022-12-18T07:39:45;38.97;;;17.37;;
62580;SDS011;48640;48.770;9.148;2022-12-18T07:42:12;38.33;;;20.60;;
62580;SDS011;48640;48.770;9.148;2022-12-18T07:44:58;39.13;;;18.40;;
62580;SDS011;48640;48.770;9.148;2022-12-18T07:47:26;36.73;;;17.37;;
62580;SDS011;48640;48.770;9.148;2022-12-18T07:49:53;37.77;;;16.37;;
62580;SDS011;48640;48.770;9.148;2022-12-18T07:52:20;38.23;;;18.13;;
62580;SDS011;48640;48.770;9.148;2022-12-18T07:54:46;32.63;;;15.93;;
62580;SDS011;48640;48.770;9.148;2022-12-18T07:57:14;37.50;;;18.13;;
62580;SDS011;48640;48.770;9.148;2022-12-18T07:59:41;41.37;;;17.67;;
62580;SDS011;48640;48.770;9.148;2022-12-18T08:02:09;34.13;;;17.40;;
62580;SDS011;48640;48.770;9.148;2022-12-18T08:04:36;37.47;;;17.47;;
62580;SDS011;48640;48.770;9.148;2022-12-18T08:07:03;39.47;;;18.67;;
62580;SDS011;48640;48.770;9.148;2022-12-18T08:09:29;38.97;;;18.77;;
62580;SDS011;48640;48.770;9.148;2022-12-18T08:11:56;36.57;;;17.10;;
62580;SDS011;48640;48.770;9.148;2022-12-18T08:14:23;42.33;;;18.23;;
62580;SDS011;48640;48.770;9.148;2022-12-18T08:16:50;44.23;;;19.27;;
62580;SDS011;48640;48.770;9.148;2022-12-18T08:19:18;41.93;;;19.57;;
62580;SDS011;48640;48.770;9.148;2022-12-18T08:21:45;38.30;;;17.43;;
62580;SDS011;48640;48.770;9.148;2022-12-18T08:24:12;37.27;;;17.30;;
62580;SDS011;48640;48.770;9.148;2022-12-18T08:26:38;36.17;;;17.00;;
62580;SDS011;48640;48.770;9.148;2022-12-18T08:29:05;39.07;;;18.63;;
62580;SDS011;48640;48.770;9.148;2022-12-18T08:31:32;39.80;;;18.10;;
62580;SDS011;48640;48.770;9.148;2022-12-18T08:33:59;36.90;;;17.13;;
62580;SDS011;48640;48.770;9.148;2022-12-18T08:36:27;38.73;;;16.97;;
62580;SDS011;48640;48.770;9.148;2022-12-18T08:38:54;39.00;;;17.33;;
62580;SDS011;48640;48.770;9.148;2022-12-18T08:41:21;42.00;;;18.00;;
62580;SDS011;48640;48.770;9.148;2022-12-18T08:43:48;40.77;;;18.03;;
62580;SDS011;48640;48.770;9.148;2022-12-18T08:46:33;40.10;;;18.63;;
62580;SDS011;48640;48.770;9.148;2022-12-18T08:49:01;36.23;;;16.13;;
62580;SDS011;48640;48.770;9.148;2022-12-18T08:51:30;40.50;;;18.60;;
62580;SDS011;48640;48.770;9.148;2022-12-18T08:53:56;38.23;;;17.80;;
62580;SDS011;48640;48.770;9.148;2022-12-18T08:56:23;38.27;;;19.93;;
62580;SDS011;48640;48.770;9.148;2022-12-18T08:58:51;34.43;;;16.80;;
62580;SDS011;48640;48.770;9.148;2022-12-18T09:01:18;40.03;;;18.97;;
62580;SDS011;48640;48.770;9.148;2022-12-18T09:03:45;43.93;;;21.13;;
62580;SDS011;48640;48.770;9.148;2022-12-18T09:06:13;42.90;;;21.03;;
62580;SDS011;48640;48.770;9.148;2022-12-18T09:08:41;36.80;;;20.33;;
62580;SDS011;48640;48.770;9.148;2022-12-18T09:11:11;37.67;;;19.37;;
62580;SDS011;48640;48.770;9.148;2022-12-18T09:13:40;43.20;;;18.73;;
62580;SDS011;48640;48.770;9.148;2022-12-18T09:16:07;41.23;;;17.90;;
62580;SDS011;48640;48.770;9.148;2022-12-18T09:18:33;41.57;;;19.43;;
62580;SDS011;48640;48.770;9.148;2022-12-18T09:21:06;37.47;;;18.10;;
62580;SDS011;48640;48.770;9.148;2022-12-18T09:23:34;42.13;;;20.83;;
62580;SDS011;48640;48.770;9.148;2022-12-18T09:26:02;42.57;;;19.97;;
62580;SDS011;48640;48.770;9.148;2022-12-18T09:28:29;44.77;;;19.67;;
62580;SDS011;48640;48.770;9.148;2022-12-18T09:30:56;42.63;;;19.07;;
62580;SDS011;48640;48.770;9.148;2022-12-18T09:33:23;39.63;;;19.43;;
62580;SDS011;48640;48.770;9.148;2022-12-18T09:35:49;44.70;;;19.90;;
62580;SDS011;48640;48.770;9.148;2022-12-18T09:38:17;42.67;;;20.63;;
62580;SDS011;48640;48.770;9.148;2022-12-18T09:40:50;46.30;;;21.30;;
62580;SDS011;48640;48.770;9.148;2022-12-18T09:43:21;39.90;;;19.30;;
62580;SDS011;48640;48.770;9.148;2022-12-18T09:45:53;37.57;;;20.33;;
62580;SDS011;48640;48.770;9.148;2022-12-18T09:48:25;46.17;;;21.70;;
62580;SDS011;48640;48.770;9.148;2022-12-18T09:50:57;46.00;;;21.47;;
62580;SDS011;48640;48.770;9.148;2022-12-18T09:53:28;41.03;;;20.33;;
62580;SDS011;48640;48.770;9.148;2022-12-18T09:55:59;41.80;;;20.93;;
62580;SDS011;48640;48.770;9.148;2022-12-18T09:58:30;42.23;;;20.67;;
62580;SDS011;48640;48.770;9.148;2022-12-18T10:01:02;43.30;;;21.30;;
62580;SDS011;48640;48.770;9.148;2022-12-18T10:03:34;43.17;;;20.20;;
62580;SDS011;48640;48.770;9.148;2022-12-18T10:06:02;44.03;;;22.20;;
62580;SDS011;48640;48.770;9.148;2022-12-18T10:08:37;38.60;;;19.30;;
62580;SDS011;48640;48.770;9.148;2022-12-18T10:11:16;47.50;;;20.80;;
62580;SDS011;48640;48.770;9.148;2022-12-18T10:13:52;43.23;;;20.10;;
62580;SDS011;48640;48.770;9.148;2022-12-18T10:16:23;42.13;;;18.67;;
62580;SDS011;48640;48.770;9.148;2022-12-18T10:19:04;38.63;;;19.50;;
62580;SDS011;48640;48.770;9.148;2022-12-18T10:21:45;43.43;;;18.67;;
62580;SDS011;48640;48.770;9.148;2022-12-18T10:24:19;41.60;;;21.40;;
62580;SDS011;48640;48.770;9.148;2022-12-18T10:26:52;44.20;;;19.00;;
62580;SDS011;48640;48.770;9.148;2022-12-18T10:29:28;41.00;;;19.37;;
62580;SDS011;48640;48.770;9.148;2022-12-18T10:31:55;52.13;;;22.20;;
62580;SDS011;48640;48.770;9.148;2022-12-18T10:34:21;44.07;;;20.53;;
62580;SDS011;48640;48.770;9.148;2022-12-18T10:36:49;44.27;;;19.67;;
62580;SDS011;48640;48.770;9.148;2022-12-18T10:39:17;42.90;;;19.17;;
62580;SDS011;48640;48.770;9.148;2022-12-18T10:41:45;40.37;;;19.97;;
62580;SDS011;48640;48.770;9.148;2022-12-18T10:44:14;43.17;;;21.67;;
62580;SDS011;48640;48.770;9.148;2022-12-18T10:46:45;43.60;;;21.00;;
62580;SDS011;48640;48.770;9.148;2022-12-18T10:49:18;42.25;;;21.50;;
62580;SDS011;48640;48.770;9.148;2022-12-18T10:51:48;37.37;;;18.57;;
62580;SDS011;48640;48.770;9.148;2022-12-18T10:54:16;40.70;;;20.03;;
62580;SDS011;48640;48.770;9.148;2022-12-18T10:56:44;44.50;;;20.70;;
62580;SDS011;48640;48.770;9.148;2022-12-18T10:59:12;47.97;;;21.53;;
62580;SDS011;48640;48.770;9.148;2022-12-18T11:01:48;42.53;;;20.70;;
62580;SDS011;48640;48.770;9.148;2022-12-18T11:04:18;42.63;;;20.50;;
62580;SDS011;48640;48.770;9.148;2022-12-18T11:06:53;41.95;;;20.02;;
62580;SDS011;48640;48.770;9.148;2022-12-18T11:09:22;41.67;;;19.27;;
62580;SDS011;48640;48.770;9.148;2022-12-18T11:11:51;39.37;;;19.50;;
62580;SDS011;48640;48.770;9.148;2022-12-18T11:14:20;44.63;;;19.87;;
62580;SDS011;48640;48.770;9.148;2022-12-18T11:16:50;32.25;;;17.95;;
62580;SDS011;48640;48.770;9.148;2022-12-18T11:19:24;40.93;;;20.30;;
62580;SDS011;48640;48.770;9.148;2022-12-18T11:21:56;40.10;;;18.90;;
62580;SDS011;48640;48.770;9.148;2022-12-18T11:24:25;46.37;;;19.77;;
62580;SDS011;48640;48.770;9.148;2022-12-18T11:26:55;43.57;;;21.07;;
62580;SDS011;48640;48.770;9.148;2022-12-18T11:29:23;44.37;;;21.33;;
62580;SDS011;48640;48.770;9.148;2022-12-18T11:32:10;43.70;;;20.87;;
62580;SDS011;48640;48.770;9.148;2022-12-18T11:34:55;43.07;;;19.17;;
62580;SDS011;48640;48.770;9.148;2022-12-18T11:37:27;36.23;;;18.73;;
62580;SDS011;48640;48.770;9.148;2022-12-18T11:39:54;45.13;;;22.80;;
62580;SDS011;48640;48.770;9.148;2022-12-18T11:42:27;42.87;;;19.27;;
62580;SDS011;48640;48.770;9.148;2022-12-18T11:44:59;41.50;;;18.73;;
62580;SDS011;48640;48.770;9.148;2022-12-18T11:47:39;36.90;;;20.38;;
62580;SDS011;48640;48.770;9.148;2022-12-18T11:50:12;43.97;;;19.20;;
62580;SDS011;48640;48.770;9.148;2022-12-18T11:52:42;39.40;;;18.23;;
62580;SDS011;48640;48.770;9.148;2022-12-18T11:55:10;43.50;;;19.73;;
62580;SDS011;48640;48.770;9.148;2022-12-18T11:57:41;45.93;;;21.83;;
62580;SDS011;48640;48.770;9.148;2022-12-18T12:00:16;39.83;;;19.60;;
62580;SDS011;48640;48.770;9.148;2022-12-18T12:05:38;42.30;;;20.17;;
62580;SDS011;48640;48.770;9.148;2022-12-18T12:08:14;38.23;;;18.97;;
62580;SDS011;48640;48.770;9.148;2022-12-18T12:10:51;49.87;;;21.70;;
62580;SDS011;48640;48.770;9.148;2022-12-18T12:13:29;40.50;;;19.73;;
62580;SDS011;48640;48.770;9.148;2022-12-18T12:16:06;45.43;;;20.57;;
62580;SDS011;48640;48.770;9.148;2022-12-18T12:18:43;43.00;;;19.73;;
62580;SDS011;48640;48.770;9.148;2022-12-18T12:21:28;38.80;;;19.60;;
62580;SDS011;48640;48.770;9.148;2022-12-18T12:24:05;39.43;;;18.93;;
62580;SDS011;48640;48.770;9.148;2022-12-18T12:26:43;40.97;;;20.77;;
62580;SDS011;48640;48.770;9.148;2022-12-18T12:29:22;40.13;;;19.90;;
62580;SDS011;48640;48.770;9.148;2022-12-18T12:32:01;41.85;;;20.80;;
62580;SDS011;48640;48.770;9.148;2022-12-18T12:34:39;47.07;;;18.97;;
62580;SDS011;48640;48.770;9.148;2022-12-18T12:37:19;42.42;;;19.17;;
62580;SDS011;48640;48.770;9.148;2022-12-18T12:39:55;42.50;;;20.93;;
62580;SDS011;48640;48.770;9.148;2022-12-18T12:42:29;40.67;;;17.20;;
62580;SDS011;48640;48.770;9.148;2022-12-18T12:45:20;38.90;;;18.47;;
62580;SDS011;48640;48.770;9.148;2022-12-18T12:47:50;42.97;;;19.00;;
62580;SDS011;48640;48.770;9.148;2022-12-18T12:50:20;39.37;;;18.93;;
62580;SDS011;48640;48.770;9.148;2022-12-18T12:52:49;37.70;;;17.85;;
62580;SDS011;48640;48.770;9.148;2022-12-18T12:55:18;37.30;;;17.50;;
62580;SDS011;48640;48.770;9.148;2022-12-18T12:57:50;42.63;;;18.00;;
62580;SDS011;48640;48.770;9.148;2022-12-18T13:00:23;39.37;;;18.23;;
62580;SDS011;48640;48.770;9.148;2022-12-18T13:02:56;38.43;;;16.73;;
62580;SDS011;48640;48.770;9.148;2022-12-18T13:05:33;38.00;;;19.80;;
62580;SDS011;48640;48.770;9.148;2022-12-18T13:08:06;39.60;;;18.10;;
62580;SDS011;48640;48.770;9.148;2022-12-18T13:10:34;46.30;;;20.27;;
62580;SDS011;48640;48.770;9.148;2022-12-18T13:13:03;39.80;;;16.77;;
62580;SDS011;48640;48.770;9.148;2022-12-18T13:15:31;47.20;;;21.13;;
62580;SDS011;48640;48.770;9.148;2022-12-18T13:18:11;50.10;;;21.23;;
62580;SDS011;48640;48.770;9.148;2022-12-18T13:20:43;41.03;;;18.63;;
62580;SDS011;48640;48.770;9.148;2022-12-18T13:23:28;38.17;;;21.27;;
62580;SDS011;48640;48.770;9.148;2022-12-18T13:25:57;39.53;;;18.47;;
62580;SDS011;48640;48.770;9.148;2022-12-18T13:34:33;41.27;;;20.93;;
62580;SDS011;48640;48.770;9.148;2022-12-18T13:43:30;37.67;;;19.03;;
62580;SDS011;48640;48.770;9.148;2022-12-18T13:46:05;36.67;;;18.37;;
62580;SDS011;48640;48.770;9.148;2022-12-18T13:48:49;34.37;;;18.07;;
62580;SDS011;48640;48.770;9.148;2022-12-18T13:51:27;35.93;;;18.03;;
62580;SDS011;48640;48.770;9.148;2022-12-18T13:53:57;35.23;;;17.70;;
62580;SDS011;48640;48.770;9.148;2022-12-18T13:56:26;37.50;;;18.70;;
62580;SDS011;48640;48.770;9.148;2022-12-18T13:59:08;37.90;;;17.63;;
62580;SDS011;48640;48.770;9.148;2022-12-18T14:01:46;38.47;;;18.53;;
62580;SDS011;48640;48.770;9.148;2022-12-18T14:04:19;39.50;;;18.37;;
62580;SDS011;48640;48.770;9.148;2022-12-18T14:06:52;36.97;;;18.47;;
62580;SDS011;48640;48.770;9.148;2022-12-18T14:11:51;38.03;;;16.97;;
62580;SDS011;48640;48.770;9.148;2022-12-18T14:14:42;39.03;;;19.77;;
62580;SDS011;48640;48.770;9.148;2022-12-18T14:17:12;43.20;;;18.40;;
62580;SDS011;48640;48.770;9.148;2022-12-18T14:19:43;39.90;;;18.47;;
62580;SDS011;48640;48.770;9.148;2022-12-18T14:22:16;38.83;;;18.60;;
62580;SDS011;48640;48.770;9.148;2022-12-18T14:24:44;42.07;;;17.93;;
62580;SDS011;48640;48.770;9.148;2022-12-18T14:27:12;40.80;;;20.50;;
62580;SDS011;48640;48.770;9.148;2022-12-18T14:29:48;37.73;;;18.93;;
62580;SDS011;48640;48.770;9.148;2022-12-18T14:32:16;40.43;;;20.87;;
62580;SDS011;48640;48.770;9.148;2022-12-18T14:34:46;40.45;;;19.50;;
62580;SDS011;48640;48.770;9.148;2022-12-18T14:37:14;40.30;;;20.40;;
62580;SDS011;48640;48.770;9.148;2022-12-18T14:39:54;39.17;;;17.38;;
62580;SDS011;48640;48.770;9.148;2022-12-18T14:42:22;38.10;;;18.33;;
62580;SDS011;48640;48.770;9.148;2022-12-18T14:47:53;43.30;;;19.57;;
62580;SDS011;48640;48.770;9.148;2022-12-18T14:50:20;43.73;;;21.73;;
62580;SDS011;48640;48.770;9.148;2022-12-18T14:52:47;42.83;;;18.87;;
62580;SDS011;48640;48.770;9.148;2022-12-18T14:55:14;48.13;;;21.77;;
62580;SDS011;48640;48.770;9.148;2022-12-18T14:57:42;45.20;;;20.80;;
62580;SDS011;48640;48.770;9.148;2022-12-18T15:00:11;44.47;;;21.50;;
62580;SDS011;48640;48.770;9.148;2022-12-18T15:02:43;38.03;;;19.20;;